Detroit, Michigan
Traffic Map
Current Weather Conditions
Detroit, Michigan
Broken Clouds
Broken Clouds
50°
Feels Like: 50°
Wind Chill: 50° Ceiling: 4100
Heat Index: 50° Visibility: 15mi
Dew Point: 34° Wind: 12mph
Humidity: 54% Direction: 20° (NNE)
Pressure: 30.03in Gusts: 18mph
Raw Report DataCYQG 272200Z 02010G16KT 310V030 15SM BKN041 10/01 A3003 RMK CU7 SLP171
Traffic Incident Summary
Active as of:
Severity:
Category:
InformationThere was an issue retrieving the traffic information for this location. Please try a different location or try again shortly.
Advertisements
Track Severe Weather on mobile